sensor_id;sensor_type;location;lat;lon;timestamp;P1;durP1;ratioP1;P2;durP2;ratioP2
4317;SDS011;2172;53.576;9.934;2023-03-01T00:01:38;15.37;;;11.40;;
4317;SDS011;2172;53.576;9.934;2023-03-01T00:04:06;15.13;;;10.50;;
4317;SDS011;2172;53.576;9.934;2023-03-01T00:06:34;16.40;;;11.60;;
4317;SDS011;2172;53.576;9.934;2023-03-01T00:09:01;18.23;;;11.07;;
4317;SDS011;2172;53.576;9.934;2023-03-01T00:11:31;12.20;;;9.93;;
4317;SDS011;2172;53.576;9.934;2023-03-01T00:13:59;13.67;;;11.00;;
4317;SDS011;2172;53.576;9.934;2023-03-01T00:16:30;13.40;;;10.80;;
4317;SDS011;2172;53.576;9.934;2023-03-01T00:18:59;14.60;;;11.50;;
4317;SDS011;2172;53.576;9.934;2023-03-01T00:21:27;16.23;;;11.43;;
4317;SDS011;2172;53.576;9.934;2023-03-01T00:23:55;18.43;;;12.37;;
4317;SDS011;2172;53.576;9.934;2023-03-01T00:26:24;21.20;;;13.87;;
4317;SDS011;2172;53.576;9.934;2023-03-01T00:28:53;18.70;;;12.90;;
4317;SDS011;2172;53.576;9.934;2023-03-01T00:31:22;18.50;;;12.67;;
4317;SDS011;2172;53.576;9.934;2023-03-01T00:33:52;18.60;;;13.10;;
4317;SDS011;2172;53.576;9.934;2023-03-01T00:36:22;19.90;;;12.53;;
4317;SDS011;2172;53.576;9.934;2023-03-01T00:38:51;16.97;;;13.13;;
4317;SDS011;2172;53.576;9.934;2023-03-01T00:41:20;15.83;;;11.83;;
4317;SDS011;2172;53.576;9.934;2023-03-01T00:43:49;14.20;;;12.20;;
4317;SDS011;2172;53.576;9.934;2023-03-01T00:46:19;17.83;;;12.70;;
4317;SDS011;2172;53.576;9.934;2023-03-01T00:48:48;14.90;;;13.00;;
4317;SDS011;2172;53.576;9.934;2023-03-01T00:51:16;16.60;;;12.33;;
4317;SDS011;2172;53.576;9.934;2023-03-01T00:53:44;14.47;;;12.37;;
4317;SDS011;2172;53.576;9.934;2023-03-01T00:56:13;19.03;;;13.77;;
4317;SDS011;2172;53.576;9.934;2023-03-01T00:58:42;24.60;;;13.20;;
4317;SDS011;2172;53.576;9.934;2023-03-01T01:01:10;17.23;;;12.93;;
4317;SDS011;2172;53.576;9.934;2023-03-01T01:03:45;18.43;;;13.23;;
4317;SDS011;2172;53.576;9.934;2023-03-01T01:06:14;15.20;;;12.70;;
4317;SDS011;2172;53.576;9.934;2023-03-01T01:08:42;15.07;;;12.43;;
4317;SDS011;2172;53.576;9.934;2023-03-01T01:11:10;19.03;;;12.57;;
4317;SDS011;2172;53.576;9.934;2023-03-01T01:13:39;23.40;;;14.50;;
4317;SDS011;2172;53.576;9.934;2023-03-01T01:16:07;15.03;;;12.20;;
4317;SDS011;2172;53.576;9.934;2023-03-01T01:18:35;15.50;;;11.90;;
4317;SDS011;2172;53.576;9.934;2023-03-01T01:21:04;19.63;;;12.30;;
4317;SDS011;2172;53.576;9.934;2023-03-01T01:23:33;16.20;;;13.20;;
4317;SDS011;2172;53.576;9.934;2023-03-01T01:26:05;16.80;;;12.30;;
4317;SDS011;2172;53.576;9.934;2023-03-01T01:28:33;15.10;;;11.40;;
4317;SDS011;2172;53.576;9.934;2023-03-01T01:31:01;15.30;;;12.20;;
4317;SDS011;2172;53.576;9.934;2023-03-01T01:33:28;13.77;;;11.33;;
4317;SDS011;2172;53.576;9.934;2023-03-01T01:35:56;15.70;;;12.77;;
4317;SDS011;2172;53.576;9.934;2023-03-01T01:38:25;15.03;;;12.47;;
4317;SDS011;2172;53.576;9.934;2023-03-01T01:40:52;16.70;;;12.03;;
4317;SDS011;2172;53.576;9.934;2023-03-01T01:43:21;16.30;;;12.37;;
4317;SDS011;2172;53.576;9.934;2023-03-01T01:45:50;17.50;;;12.30;;
4317;SDS011;2172;53.576;9.934;2023-03-01T01:48:20;17.57;;;12.87;;
4317;SDS011;2172;53.576;9.934;2023-03-01T01:50:50;14.63;;;11.83;;
4317;SDS011;2172;53.576;9.934;2023-03-01T01:53:22;15.37;;;12.57;;
4317;SDS011;2172;53.576;9.934;2023-03-01T01:55:51;13.10;;;11.60;;
4317;SDS011;2172;53.576;9.934;2023-03-01T01:58:22;15.80;;;12.37;;
4317;SDS011;2172;53.576;9.934;2023-03-01T02:00:52;14.90;;;11.83;;
4317;SDS011;2172;53.576;9.934;2023-03-01T02:03:22;15.40;;;11.90;;
4317;SDS011;2172;53.576;9.934;2023-03-01T02:05:55;18.33;;;11.50;;
4317;SDS011;2172;53.576;9.934;2023-03-01T02:08:26;19.33;;;12.97;;
4317;SDS011;2172;53.576;9.934;2023-03-01T02:10:55;17.40;;;11.90;;
4317;SDS011;2172;53.576;9.934;2023-03-01T02:13:24;14.93;;;12.20;;
4317;SDS011;2172;53.576;9.934;2023-03-01T02:15:53;12.17;;;10.70;;
4317;SDS011;2172;53.576;9.934;2023-03-01T02:18:21;15.27;;;10.63;;
4317;SDS011;2172;53.576;9.934;2023-03-01T02:21:03;16.47;;;11.40;;
4317;SDS011;2172;53.576;9.934;2023-03-01T02:23:38;15.30;;;12.27;;
4317;SDS011;2172;53.576;9.934;2023-03-01T02:26:08;13.73;;;10.27;;
4317;SDS011;2172;53.576;9.934;2023-03-01T02:28:43;15.77;;;11.40;;
4317;SDS011;2172;53.576;9.934;2023-03-01T02:31:11;17.90;;;12.27;;
4317;SDS011;2172;53.576;9.934;2023-03-01T02:34:00;13.30;;;10.10;;
4317;SDS011;2172;53.576;9.934;2023-03-01T02:36:30;14.70;;;10.10;;
4317;SDS011;2172;53.576;9.934;2023-03-01T02:39:01;11.90;;;8.77;;
4317;SDS011;2172;53.576;9.934;2023-03-01T02:41:32;11.63;;;9.77;;
4317;SDS011;2172;53.576;9.934;2023-03-01T02:44:04;13.60;;;9.00;;
4317;SDS011;2172;53.576;9.934;2023-03-01T02:46:41;14.13;;;10.17;;
4317;SDS011;2172;53.576;9.934;2023-03-01T02:49:20;12.27;;;10.23;;
4317;SDS011;2172;53.576;9.934;2023-03-01T02:51:56;14.70;;;8.93;;
4317;SDS011;2172;53.576;9.934;2023-03-01T02:54:33;13.83;;;9.30;;
4317;SDS011;2172;53.576;9.934;2023-03-01T02:57:05;10.80;;;9.00;;
4317;SDS011;2172;53.576;9.934;2023-03-01T02:59:35;12.93;;;9.13;;
4317;SDS011;2172;53.576;9.934;2023-03-01T03:02:06;10.57;;;8.53;;
4317;SDS011;2172;53.576;9.934;2023-03-01T03:04:34;15.00;;;8.80;;
4317;SDS011;2172;53.576;9.934;2023-03-01T03:07:02;12.20;;;8.70;;
4317;SDS011;2172;53.576;9.934;2023-03-01T03:09:30;14.47;;;9.00;;
4317;SDS011;2172;53.576;9.934;2023-03-01T03:11:57;11.50;;;8.40;;
4317;SDS011;2172;53.576;9.934;2023-03-01T03:14:25;11.93;;;8.60;;
4317;SDS011;2172;53.576;9.934;2023-03-01T03:16:54;8.97;;;8.07;;
4317;SDS011;2172;53.576;9.934;2023-03-01T03:19:22;10.67;;;8.10;;
4317;SDS011;2172;53.576;9.934;2023-03-01T03:21:49;11.90;;;7.13;;
4317;SDS011;2172;53.576;9.934;2023-03-01T03:24:17;10.97;;;6.90;;
4317;SDS011;2172;53.576;9.934;2023-03-01T03:26:44;11.97;;;8.13;;
4317;SDS011;2172;53.576;9.934;2023-03-01T03:29:12;10.97;;;7.43;;
4317;SDS011;2172;53.576;9.934;2023-03-01T03:31:39;13.23;;;8.33;;
4317;SDS011;2172;53.576;9.934;2023-03-01T03:34:08;12.10;;;7.53;;
4317;SDS011;2172;53.576;9.934;2023-03-01T03:36:43;12.47;;;8.33;;
4317;SDS011;2172;53.576;9.934;2023-03-01T03:39:10;9.97;;;6.97;;
4317;SDS011;2172;53.576;9.934;2023-03-01T03:41:38;11.17;;;8.10;;
4317;SDS011;2172;53.576;9.934;2023-03-01T03:44:05;8.23;;;7.30;;
4317;SDS011;2172;53.576;9.934;2023-03-01T03:46:33;8.50;;;7.13;;
4317;SDS011;2172;53.576;9.934;2023-03-01T03:49:00;10.27;;;7.97;;
4317;SDS011;2172;53.576;9.934;2023-03-01T03:51:29;9.80;;;7.73;;
4317;SDS011;2172;53.576;9.934;2023-03-01T03:53:57;9.30;;;7.37;;
4317;SDS011;2172;53.576;9.934;2023-03-01T03:56:24;9.90;;;8.00;;
4317;SDS011;2172;53.576;9.934;2023-03-01T03:58:52;9.23;;;6.40;;
4317;SDS011;2172;53.576;9.934;2023-03-01T04:01:19;9.63;;;7.63;;
4317;SDS011;2172;53.576;9.934;2023-03-01T04:03:47;12.37;;;7.97;;
4317;SDS011;2172;53.576;9.934;2023-03-01T04:06:19;7.53;;;6.67;;
4317;SDS011;2172;53.576;9.934;2023-03-01T04:08:49;8.83;;;6.87;;
4317;SDS011;2172;53.576;9.934;2023-03-01T04:11:23;10.90;;;6.23;;
4317;SDS011;2172;53.576;9.934;2023-03-01T04:13:54;9.67;;;6.30;;
4317;SDS011;2172;53.576;9.934;2023-03-01T04:16:22;8.43;;;7.17;;
4317;SDS011;2172;53.576;9.934;2023-03-01T04:18:50;12.13;;;6.63;;
4317;SDS011;2172;53.576;9.934;2023-03-01T04:21:18;8.10;;;6.40;;
4317;SDS011;2172;53.576;9.934;2023-03-01T04:23:46;8.83;;;6.77;;
4317;SDS011;2172;53.576;9.934;2023-03-01T04:26:17;15.37;;;7.90;;
4317;SDS011;2172;53.576;9.934;2023-03-01T04:28:46;6.87;;;6.17;;
4317;SDS011;2172;53.576;9.934;2023-03-01T04:31:16;8.40;;;5.83;;
4317;SDS011;2172;53.576;9.934;2023-03-01T04:33:46;7.83;;;6.30;;
4317;SDS011;2172;53.576;9.934;2023-03-01T04:36:16;8.83;;;6.30;;
4317;SDS011;2172;53.576;9.934;2023-03-01T04:38:44;9.47;;;6.00;;
4317;SDS011;2172;53.576;9.934;2023-03-01T04:41:15;7.20;;;6.17;;
4317;SDS011;2172;53.576;9.934;2023-03-01T04:43:43;9.10;;;6.33;;
4317;SDS011;2172;53.576;9.934;2023-03-01T04:46:12;11.23;;;6.67;;
4317;SDS011;2172;53.576;9.934;2023-03-01T04:48:41;10.37;;;6.53;;
4317;SDS011;2172;53.576;9.934;2023-03-01T04:51:09;8.87;;;6.30;;
4317;SDS011;2172;53.576;9.934;2023-03-01T04:53:38;11.30;;;6.93;;
4317;SDS011;2172;53.576;9.934;2023-03-01T04:56:06;8.77;;;6.30;;
4317;SDS011;2172;53.576;9.934;2023-03-01T04:58:35;10.57;;;6.17;;
4317;SDS011;2172;53.576;9.934;2023-03-01T05:01:07;11.87;;;6.70;;
4317;SDS011;2172;53.576;9.934;2023-03-01T05:03:40;13.37;;;6.97;;
4317;SDS011;2172;53.576;9.934;2023-03-01T05:06:09;13.47;;;7.20;;
4317;SDS011;2172;53.576;9.934;2023-03-01T05:08:37;10.70;;;6.50;;
4317;SDS011;2172;53.576;9.934;2023-03-01T05:11:05;8.90;;;6.53;;
4317;SDS011;2172;53.576;9.934;2023-03-01T05:13:34;8.67;;;5.97;;
4317;SDS011;2172;53.576;9.934;2023-03-01T05:16:04;9.83;;;6.13;;
4317;SDS011;2172;53.576;9.934;2023-03-01T05:18:36;12.53;;;7.33;;
4317;SDS011;2172;53.576;9.934;2023-03-01T05:21:04;11.60;;;6.20;;
4317;SDS011;2172;53.576;9.934;2023-03-01T05:23:33;9.20;;;5.90;;
4317;SDS011;2172;53.576;9.934;2023-03-01T05:26:01;8.30;;;6.00;;
4317;SDS011;2172;53.576;9.934;2023-03-01T05:28:31;10.00;;;6.43;;
4317;SDS011;2172;53.576;9.934;2023-03-01T05:31:00;11.53;;;7.10;;
4317;SDS011;2172;53.576;9.934;2023-03-01T05:33:27;10.93;;;6.13;;
4317;SDS011;2172;53.576;9.934;2023-03-01T05:35:59;10.10;;;6.53;;
4317;SDS011;2172;53.576;9.934;2023-03-01T05:38:26;11.53;;;6.50;;
4317;SDS011;2172;53.576;9.934;2023-03-01T05:40:54;9.77;;;6.30;;
4317;SDS011;2172;53.576;9.934;2023-03-01T05:43:21;8.23;;;6.20;;
4317;SDS011;2172;53.576;9.934;2023-03-01T05:45:49;10.97;;;6.10;;
4317;SDS011;2172;53.576;9.934;2023-03-01T05:48:17;14.87;;;6.00;;
4317;SDS011;2172;53.576;9.934;2023-03-01T05:50:45;10.50;;;6.03;;
4317;SDS011;2172;53.576;9.934;2023-03-01T05:53:14;14.53;;;7.40;;
4317;SDS011;2172;53.576;9.934;2023-03-01T05:55:42;15.37;;;6.90;;
4317;SDS011;2172;53.576;9.934;2023-03-01T05:58:12;13.03;;;7.03;;
4317;SDS011;2172;53.576;9.934;2023-03-01T06:00:42;16.27;;;10.33;;
4317;SDS011;2172;53.576;9.934;2023-03-01T06:03:10;12.80;;;9.00;;
4317;SDS011;2172;53.576;9.934;2023-03-01T06:05:40;14.60;;;9.30;;
4317;SDS011;2172;53.576;9.934;2023-03-01T06:08:09;14.87;;;8.30;;
4317;SDS011;2172;53.576;9.934;2023-03-01T06:10:37;17.30;;;7.73;;
4317;SDS011;2172;53.576;9.934;2023-03-01T06:13:05;16.23;;;8.20;;
4317;SDS011;2172;53.576;9.934;2023-03-01T06:15:33;13.33;;;7.80;;
4317;SDS011;2172;53.576;9.934;2023-03-01T06:18:00;16.40;;;8.40;;
4317;SDS011;2172;53.576;9.934;2023-03-01T06:20:28;17.43;;;8.30;;
4317;SDS011;2172;53.576;9.934;2023-03-01T06:22:57;17.73;;;7.70;;
4317;SDS011;2172;53.576;9.934;2023-03-01T06:25:25;15.20;;;7.47;;
4317;SDS011;2172;53.576;9.934;2023-03-01T06:27:53;22.17;;;8.47;;
4317;SDS011;2172;53.576;9.934;2023-03-01T06:30:21;21.20;;;8.70;;
4317;SDS011;2172;53.576;9.934;2023-03-01T06:32:50;16.03;;;7.90;;
4317;SDS011;2172;53.576;9.934;2023-03-01T06:35:18;18.87;;;8.40;;
4317;SDS011;2172;53.576;9.934;2023-03-01T06:37:46;16.70;;;8.27;;
4317;SDS011;2172;53.576;9.934;2023-03-01T06:40:16;23.43;;;8.33;;
4317;SDS011;2172;53.576;9.934;2023-03-01T06:42:47;16.37;;;7.60;;
4317;SDS011;2172;53.576;9.934;2023-03-01T06:45:15;15.00;;;7.73;;
4317;SDS011;2172;53.576;9.934;2023-03-01T06:47:43;13.53;;;7.73;;
4317;SDS011;2172;53.576;9.934;2023-03-01T06:50:11;21.70;;;7.60;;
4317;SDS011;2172;53.576;9.934;2023-03-01T06:52:39;22.17;;;7.67;;
4317;SDS011;2172;53.576;9.934;2023-03-01T06:55:09;17.90;;;7.70;;
4317;SDS011;2172;53.576;9.934;2023-03-01T06:57:37;19.63;;;7.00;;
4317;SDS011;2172;53.576;9.934;2023-03-01T07:00:06;21.57;;;7.60;;
4317;SDS011;2172;53.576;9.934;2023-03-01T07:02:35;16.93;;;7.67;;
4317;SDS011;2172;53.576;9.934;2023-03-01T07:05:03;17.80;;;7.67;;
4317;SDS011;2172;53.576;9.934;2023-03-01T07:07:31;10.57;;;7.23;;
4317;SDS011;2172;53.576;9.934;2023-03-01T07:09:58;10.80;;;6.90;;
4317;SDS011;2172;53.576;9.934;2023-03-01T07:12:26;12.07;;;7.67;;
4317;SDS011;2172;53.576;9.934;2023-03-01T07:14:55;17.20;;;7.70;;
4317;SDS011;2172;53.576;9.934;2023-03-01T07:17:23;11.87;;;8.50;;
4317;SDS011;2172;53.576;9.934;2023-03-01T07:19:50;13.33;;;7.53;;
4317;SDS011;2172;53.576;9.934;2023-03-01T07:22:18;18.53;;;8.77;;
4317;SDS011;2172;53.576;9.934;2023-03-01T07:24:45;17.33;;;8.63;;
4317;SDS011;2172;53.576;9.934;2023-03-01T07:27:13;13.97;;;8.40;;
4317;SDS011;2172;53.576;9.934;2023-03-01T07:29:40;18.97;;;10.37;;
4317;SDS011;2172;53.576;9.934;2023-03-01T07:32:09;25.00;;;11.77;;
4317;SDS011;2172;53.576;9.934;2023-03-01T07:34:38;20.60;;;9.10;;
4317;SDS011;2172;53.576;9.934;2023-03-01T07:37:05;15.87;;;9.20;;
4317;SDS011;2172;53.576;9.934;2023-03-01T07:39:33;10.57;;;7.80;;
4317;SDS011;2172;53.576;9.934;2023-03-01T07:42:00;11.73;;;8.47;;
4317;SDS011;2172;53.576;9.934;2023-03-01T07:44:28;14.23;;;8.43;;
4317;SDS011;2172;53.576;9.934;2023-03-01T07:46:56;13.00;;;8.03;;
4317;SDS011;2172;53.576;9.934;2023-03-01T07:49:25;15.00;;;9.13;;
4317;SDS011;2172;53.576;9.934;2023-03-01T07:51:52;18.10;;;9.17;;
4317;SDS011;2172;53.576;9.934;2023-03-01T07:54:21;19.80;;;11.53;;
4317;SDS011;2172;53.576;9.934;2023-03-01T07:56:49;16.90;;;10.40;;
4317;SDS011;2172;53.576;9.934;2023-03-01T07:59:16;15.70;;;10.00;;
4317;SDS011;2172;53.576;9.934;2023-03-01T08:01:44;14.90;;;10.50;;
4317;SDS011;2172;53.576;9.934;2023-03-01T08:04:11;19.67;;;12.67;;
4317;SDS011;2172;53.576;9.934;2023-03-01T08:06:40;24.53;;;13.50;;
4317;SDS011;2172;53.576;9.934;2023-03-01T08:09:08;22.93;;;12.47;;
4317;SDS011;2172;53.576;9.934;2023-03-01T08:11:35;16.63;;;12.83;;
4317;SDS011;2172;53.576;9.934;2023-03-01T08:14:03;19.57;;;13.53;;
4317;SDS011;2172;53.576;9.934;2023-03-01T08:16:32;24.67;;;16.70;;
4317;SDS011;2172;53.576;9.934;2023-03-01T08:19:03;23.13;;;15.23;;
4317;SDS011;2172;53.576;9.934;2023-03-01T08:21:31;27.97;;;17.03;;
4317;SDS011;2172;53.576;9.934;2023-03-01T08:24:02;27.83;;;17.13;;
4317;SDS011;2172;53.576;9.934;2023-03-01T08:26:31;23.10;;;17.10;;
4317;SDS011;2172;53.576;9.934;2023-03-01T08:28:59;29.60;;;19.87;;
4317;SDS011;2172;53.576;9.934;2023-03-01T08:31:28;27.87;;;19.30;;
4317;SDS011;2172;53.576;9.934;2023-03-01T08:33:58;19.93;;;15.47;;
4317;SDS011;2172;53.576;9.934;2023-03-01T08:36:28;23.13;;;16.50;;
4317;SDS011;2172;53.576;9.934;2023-03-01T08:38:57;24.57;;;17.13;;
4317;SDS011;2172;53.576;9.934;2023-03-01T08:41:26;21.80;;;16.77;;
4317;SDS011;2172;53.576;9.934;2023-03-01T08:43:54;21.63;;;16.50;;
4317;SDS011;2172;53.576;9.934;2023-03-01T08:46:24;23.67;;;16.27;;
4317;SDS011;2172;53.576;9.934;2023-03-01T08:48:52;90.70;;;36.63;;
4317;SDS011;2172;53.576;9.934;2023-03-01T08:51:20;21.47;;;17.07;;
4317;SDS011;2172;53.576;9.934;2023-03-01T08:53:48;22.77;;;17.40;;
4317;SDS011;2172;53.576;9.934;2023-03-01T08:56:16;22.60;;;16.67;;
4317;SDS011;2172;53.576;9.934;2023-03-01T08:58:46;18.67;;;13.80;;
4317;SDS011;2172;53.576;9.934;2023-03-01T09:01:14;26.93;;;16.70;;
4317;SDS011;2172;53.576;9.934;2023-03-01T09:03:43;21.23;;;15.20;;
4317;SDS011;2172;53.576;9.934;2023-03-01T09:06:11;22.50;;;16.90;;
4317;SDS011;2172;53.576;9.934;2023-03-01T09:08:39;26.13;;;17.57;;
4317;SDS011;2172;53.576;9.934;2023-03-01T09:11:13;24.60;;;16.50;;
4317;SDS011;2172;53.576;9.934;2023-03-01T09:13:42;26.70;;;16.90;;
4317;SDS011;2172;53.576;9.934;2023-03-01T09:16:12;24.33;;;17.23;;
4317;SDS011;2172;53.576;9.934;2023-03-01T09:18:41;20.27;;;17.00;;
4317;SDS011;2172;53.576;9.934;2023-03-01T09:21:09;22.47;;;16.27;;
4317;SDS011;2172;53.576;9.934;2023-03-01T09:23:38;21.57;;;15.97;;
4317;SDS011;2172;53.576;9.934;2023-03-01T09:26:07;29.33;;;18.53;;
4317;SDS011;2172;53.576;9.934;2023-03-01T09:28:37;20.60;;;17.00;;
4317;SDS011;2172;53.576;9.934;2023-03-01T09:31:05;23.23;;;16.80;;
4317;SDS011;2172;53.576;9.934;2023-03-01T09:33:35;20.47;;;15.73;;
4317;SDS011;2172;53.576;9.934;2023-03-01T09:36:03;19.40;;;17.20;;
4317;SDS011;2172;53.576;9.934;2023-03-01T09:38:33;19.97;;;16.03;;
4317;SDS011;2172;53.576;9.934;2023-03-01T09:41:01;23.83;;;17.20;;
4317;SDS011;2172;53.576;9.934;2023-03-01T09:43:29;22.80;;;16.23;;
4317;SDS011;2172;53.576;9.934;2023-03-01T09:46:06;23.23;;;16.27;;
4317;SDS011;2172;53.576;9.934;2023-03-01T09:48:38;27.87;;;17.53;;
4317;SDS011;2172;53.576;9.934;2023-03-01T09:51:12;20.33;;;15.00;;
4317;SDS011;2172;53.576;9.934;2023-03-01T09:53:43;20.97;;;15.80;;
4317;SDS011;2172;53.576;9.934;2023-03-01T09:56:12;21.70;;;17.60;;
4317;SDS011;2172;53.576;9.934;2023-03-01T09:58:47;26.80;;;17.90;;
4317;SDS011;2172;53.576;9.934;2023-03-01T10:01:23;24.40;;;17.10;;
4317;SDS011;2172;53.576;9.934;2023-03-01T10:04:02;20.00;;;16.60;;
4317;SDS011;2172;53.576;9.934;2023-03-01T10:06:39;27.03;;;16.63;;
4317;SDS011;2172;53.576;9.934;2023-03-01T10:09:12;30.00;;;18.83;;
4317;SDS011;2172;53.576;9.934;2023-03-01T10:11:41;23.77;;;17.30;;
4317;SDS011;2172;53.576;9.934;2023-03-01T10:14:15;23.83;;;17.00;;
4317;SDS011;2172;53.576;9.934;2023-03-01T10:16:46;20.90;;;16.13;;
4317;SDS011;2172;53.576;9.934;2023-03-01T10:19:20;20.70;;;15.57;;
4317;SDS011;2172;53.576;9.934;2023-03-01T10:21:49;19.90;;;15.17;;
4317;SDS011;2172;53.576;9.934;2023-03-01T10:24:18;20.27;;;15.23;;
4317;SDS011;2172;53.576;9.934;2023-03-01T10:26:48;21.73;;;15.87;;
4317;SDS011;2172;53.576;9.934;2023-03-01T10:29:19;19.70;;;15.67;;
4317;SDS011;2172;53.576;9.934;2023-03-01T10:31:52;19.37;;;14.20;;
4317;SDS011;2172;53.576;9.934;2023-03-01T10:34:26;24.47;;;16.23;;
4317;SDS011;2172;53.576;9.934;2023-03-01T10:36:56;23.20;;;16.03;;
4317;SDS011;2172;53.576;9.934;2023-03-01T10:39:28;21.40;;;15.80;;
4317;SDS011;2172;53.576;9.934;2023-03-01T10:41:57;21.30;;;14.90;;
4317;SDS011;2172;53.576;9.934;2023-03-01T10:44:39;20.90;;;13.53;;
4317;SDS011;2172;53.576;9.934;2023-03-01T10:47:19;21.93;;;13.80;;
4317;SDS011;2172;53.576;9.934;2023-03-01T10:49:54;19.37;;;12.87;;
4317;SDS011;2172;53.576;9.934;2023-03-01T10:52:31;18.23;;;13.70;;
4317;SDS011;2172;53.576;9.934;2023-03-01T10:55:01;19.60;;;12.27;;
4317;SDS011;2172;53.576;9.934;2023-03-01T10:57:32;15.97;;;11.70;;
4317;SDS011;2172;53.576;9.934;2023-03-01T11:00:24;15.40;;;12.53;;
4317;SDS011;2172;53.576;9.934;2023-03-01T11:03:02;15.83;;;10.70;;
4317;SDS011;2172;53.576;9.934;2023-03-01T11:05:37;16.13;;;11.27;;
4317;SDS011;2172;53.576;9.934;2023-03-01T11:08:28;16.97;;;11.60;;
4317;SDS011;2172;53.576;9.934;2023-03-01T11:11:04;16.20;;;11.73;;
4317;SDS011;2172;53.576;9.934;2023-03-01T11:13:49;11.03;;;9.20;;
4317;SDS011;2172;53.576;9.934;2023-03-01T11:16:22;11.57;;;9.10;;
4317;SDS011;2172;53.576;9.934;2023-03-01T11:18:58;13.07;;;10.37;;
4317;SDS011;2172;53.576;9.934;2023-03-01T11:21:30;21.60;;;10.47;;
4317;SDS011;2172;53.576;9.934;2023-03-01T11:24:00;18.07;;;11.07;;
4317;SDS011;2172;53.576;9.934;2023-03-01T11:26:28;16.60;;;11.20;;
4317;SDS011;2172;53.576;9.934;2023-03-01T11:28:58;14.83;;;10.70;;
4317;SDS011;2172;53.576;9.934;2023-03-01T11:31:28;13.87;;;9.83;;
4317;SDS011;2172;53.576;9.934;2023-03-01T11:33:57;12.83;;;10.70;;
4317;SDS011;2172;53.576;9.934;2023-03-01T11:36:31;14.00;;;9.33;;
4317;SDS011;2172;53.576;9.934;2023-03-01T11:39:02;14.23;;;10.90;;
4317;SDS011;2172;53.576;9.934;2023-03-01T11:41:38;13.83;;;9.77;;
4317;SDS011;2172;53.576;9.934;2023-03-01T11:44:09;12.17;;;9.37;;
4317;SDS011;2172;53.576;9.934;2023-03-01T11:46:52;16.03;;;10.87;;
4317;SDS011;2172;53.576;9.934;2023-03-01T11:49:34;11.00;;;8.50;;
4317;SDS011;2172;53.576;9.934;2023-03-01T11:52:16;11.80;;;8.80;;
4317;SDS011;2172;53.576;9.934;2023-03-01T11:54:52;15.57;;;9.20;;
4317;SDS011;2172;53.576;9.934;2023-03-01T11:57:35;11.20;;;8.57;;
4317;SDS011;2172;53.576;9.934;2023-03-01T12:00:15;11.20;;;8.53;;
4317;SDS011;2172;53.576;9.934;2023-03-01T12:03:08;10.30;;;8.43;;
4317;SDS011;2172;53.576;9.934;2023-03-01T12:06:06;9.83;;;7.30;;
4317;SDS011;2172;53.576;9.934;2023-03-01T12:09:00;8.60;;;5.97;;
4317;SDS011;2172;53.576;9.934;2023-03-01T12:11:38;10.10;;;8.07;;
4317;SDS011;2172;53.576;9.934;2023-03-01T12:14:23;9.63;;;7.93;;
4317;SDS011;2172;53.576;9.934;2023-03-01T12:17:04;9.03;;;8.10;;
4317;SDS011;2172;53.576;9.934;2023-03-01T12:19:44;12.13;;;8.10;;
4317;SDS011;2172;53.576;9.934;2023-03-01T12:22:32;9.33;;;7.47;;
4317;SDS011;2172;53.576;9.934;2023-03-01T12:30:51;9.53;;;7.93;;
4317;SDS011;2172;53.576;9.934;2023-03-01T12:33:26;8.17;;;6.80;;
4317;SDS011;2172;53.576;9.934;2023-03-01T12:36:05;6.63;;;5.93;;
4317;SDS011;2172;53.576;9.934;2023-03-01T12:38:59;8.70;;;6.30;;
4317;SDS011;2172;53.576;9.934;2023-03-01T12:41:38;9.73;;;6.60;;
4317;SDS011;2172;53.576;9.934;2023-03-01T12:44:22;18.70;;;7.77;;
4317;SDS011;2172;53.576;9.934;2023-03-01T12:47:01;8.63;;;6.40;;
4317;SDS011;2172;53.576;9.934;2023-03-01T12:49:39;8.00;;;6.53;;
4317;SDS011;2172;53.576;9.934;2023-03-01T12:52:11;9.50;;;7.13;;
4317;SDS011;2172;53.576;9.934;2023-03-01T12:54:43;9.83;;;7.83;;
4317;SDS011;2172;53.576;9.934;2023-03-01T12:57:14;9.67;;;7.20;;
4317;SDS011;2172;53.576;9.934;2023-03-01T12:59:47;10.10;;;8.03;;
4317;SDS011;2172;53.576;9.934;2023-03-01T13:02:26;11.60;;;7.50;;
4317;SDS011;2172;53.576;9.934;2023-03-01T13:05:01;8.67;;;7.43;;
4317;SDS011;2172;53.576;9.934;2023-03-01T13:07:41;9.13;;;6.97;;
4317;SDS011;2172;53.576;9.934;2023-03-01T13:10:17;8.77;;;6.00;;
4317;SDS011;2172;53.576;9.934;2023-03-01T13:13:00;10.30;;;7.43;;
4317;SDS011;2172;53.576;9.934;2023-03-01T13:15:33;9.53;;;7.63;;
4317;SDS011;2172;53.576;9.934;2023-03-01T13:18:03;8.23;;;6.13;;
4317;SDS011;2172;53.576;9.934;2023-03-01T13:20:45;8.30;;;6.80;;
4317;SDS011;2172;53.576;9.934;2023-03-01T13:23:24;7.37;;;6.23;;
4317;SDS011;2172;53.576;9.934;2023-03-01T13:26:00;7.87;;;5.90;;
4317;SDS011;2172;53.576;9.934;2023-03-01T13:28:38;13.93;;;8.73;;
4317;SDS011;2172;53.576;9.934;2023-03-01T13:31:07;12.80;;;6.30;;
4317;SDS011;2172;53.576;9.934;2023-03-01T13:33:40;10.70;;;7.80;;
4317;SDS011;2172;53.576;9.934;2023-03-01T13:36:10;9.80;;;7.40;;
4317;SDS011;2172;53.576;9.934;2023-03-01T13:41:53;11.30;;;8.30;;
4317;SDS011;2172;53.576;9.934;2023-03-01T13:44:24;12.60;;;9.00;;
4317;SDS011;2172;53.576;9.934;2023-03-01T13:46:56;12.00;;;8.40;;
4317;SDS011;2172;53.576;9.934;2023-03-01T13:49:27;10.80;;;8.23;;
4317;SDS011;2172;53.576;9.934;2023-03-01T13:51:57;10.13;;;7.60;;
4317;SDS011;2172;53.576;9.934;2023-03-01T13:54:26;12.87;;;8.90;;
4317;SDS011;2172;53.576;9.934;2023-03-01T13:56:55;12.90;;;9.17;;
4317;SDS011;2172;53.576;9.934;2023-03-01T13:59:25;15.40;;;10.13;;
4317;SDS011;2172;53.576;9.934;2023-03-01T14:01:55;12.43;;;9.13;;
4317;SDS011;2172;53.576;9.934;2023-03-01T14:04:25;15.93;;;9.80;;
4317;SDS011;2172;53.576;9.934;2023-03-01T14:07:08;12.07;;;7.97;;
4317;SDS011;2172;53.576;9.934;2023-03-01T14:09:37;10.57;;;7.30;;
4317;SDS011;2172;53.576;9.934;2023-03-01T14:15:01;10.30;;;7.30;;
4317;SDS011;2172;53.576;9.934;2023-03-01T14:17:34;9.27;;;7.10;;
4317;SDS011;2172;53.576;9.934;2023-03-01T14:20:11;9.37;;;6.77;;
4317;SDS011;2172;53.576;9.934;2023-03-01T14:22:41;9.43;;;6.77;;
4317;SDS011;2172;53.576;9.934;2023-03-01T14:25:17;6.70;;;5.40;;
4317;SDS011;2172;53.576;9.934;2023-03-01T14:27:52;7.20;;;5.63;;
4317;SDS011;2172;53.576;9.934;2023-03-01T14:30:24;9.83;;;6.30;;
4317;SDS011;2172;53.576;9.934;2023-03-01T14:32:54;7.87;;;6.10;;
4317;SDS011;2172;53.576;9.934;2023-03-01T14:35:23;10.40;;;6.80;;
4317;SDS011;2172;53.576;9.934;2023-03-01T14:37:52;8.17;;;6.30;;
4317;SDS011;2172;53.576;9.934;2023-03-01T14:40:21;8.43;;;6.30;;
4317;SDS011;2172;53.576;9.934;2023-03-01T14:42:50;8.77;;;6.00;;
4317;SDS011;2172;53.576;9.934;2023-03-01T14:45:18;8.90;;;6.23;;
4317;SDS011;2172;53.576;9.934;2023-03-01T14:47:47;7.40;;;6.37;;
4317;SDS011;2172;53.576;9.934;2023-03-01T14:50:19;10.17;;;7.33;;
4317;SDS011;2172;53.576;9.934;2023-03-01T14:52:50;11.10;;;7.60;;
4317;SDS011;2172;53.576;9.934;2023-03-01T14:55:20;10.27;;;7.77;;
4317;SDS011;2172;53.576;9.934;2023-03-01T14:57:51;8.87;;;6.87;;
4317;SDS011;2172;53.576;9.934;2023-03-01T15:00:20;10.23;;;7.37;;
4317;SDS011;2172;53.576;9.934;2023-03-01T15:02:51;9.03;;;7.03;;
4317;SDS011;2172;53.576;9.934;2023-03-01T15:05:22;9.67;;;7.10;;
4317;SDS011;2172;53.576;9.934;2023-03-01T15:07:52;11.27;;;7.37;;
4317;SDS011;2172;53.576;9.934;2023-03-01T15:10:20;10.93;;;8.10;;
4317;SDS011;2172;53.576;9.934;2023-03-01T15:12:49;10.60;;;8.23;;
4317;SDS011;2172;53.576;9.934;2023-03-01T15:15:31;9.37;;;7.27;;
4317;SDS011;2172;53.576;9.934;2023-03-01T15:18:02;12.03;;;8.07;;
4317;SDS011;2172;53.576;9.934;2023-03-01T15:20:32;10.00;;;8.13;;
4317;SDS011;2172;53.576;9.934;2023-03-01T15:23:03;14.27;;;8.63;;
4317;SDS011;2172;53.576;9.934;2023-03-01T15:25:31;11.47;;;9.07;;
4317;SDS011;2172;53.576;9.934;2023-03-01T15:28:00;9.83;;;7.43;;
4317;SDS011;2172;53.576;9.934;2023-03-01T15:30:29;10.43;;;8.13;;
4317;SDS011;2172;53.576;9.934;2023-03-01T15:33:29;10.60;;;8.30;;